sensor_id;sensor_type;location;lat;lon;timestamp;temperature;humidity
12845;DHT22;68700;48.534;9.196;2023-08-30T00:03:17;13.40;99.90
12845;DHT22;68700;48.534;9.196;2023-08-30T00:06:39;13.40;99.90
12845;DHT22;68700;48.534;9.196;2023-08-30T00:10:01;13.40;99.90
12845;DHT22;68700;48.534;9.196;2023-08-30T00:13:24;13.30;99.90
12845;DHT22;68700;48.534;9.196;2023-08-30T00:16:47;13.30;99.90
12845;DHT22;68700;48.534;9.196;2023-08-30T00:20:10;13.20;99.90
12845;DHT22;68700;48.534;9.196;2023-08-30T00:23:33;13.20;99.90
12845;DHT22;68700;48.534;9.196;2023-08-30T00:26:55;13.20;99.90
12845;DHT22;68700;48.534;9.196;2023-08-30T00:30:16;13.20;99.90
12845;DHT22;68700;48.534;9.196;2023-08-30T00:33:40;13.20;99.90
12845;DHT22;68700;48.534;9.196;2023-08-30T00:37:02;13.20;99.90
12845;DHT22;68700;48.534;9.196;2023-08-30T00:40:23;13.20;99.90
12845;DHT22;68700;48.534;9.196;2023-08-30T00:43:46;13.20;99.90
12845;DHT22;68700;48.534;9.196;2023-08-30T00:47:07;13.20;99.90
12845;DHT22;68700;48.534;9.196;2023-08-30T00:50:31;13.20;99.90
12845;DHT22;68700;48.534;9.196;2023-08-30T00:53:54;13.20;99.90
12845;DHT22;68700;48.534;9.196;2023-08-30T00:57:16;13.20;99.90
12845;DHT22;68700;48.534;9.196;2023-08-30T01:00:39;13.10;99.90
12845;DHT22;68700;48.534;9.196;2023-08-30T01:04:00;13.10;99.90
12845;DHT22;68700;48.534;9.196;2023-08-30T01:07:24;13.00;99.90
12845;DHT22;68700;48.534;9.196;2023-08-30T01:10:53;13.00;99.90
12845;DHT22;68700;48.534;9.196;2023-08-30T01:14:22;13.00;99.90
12845;DHT22;68700;48.534;9.196;2023-08-30T01:17:47;13.00;99.90
12845;DHT22;68700;48.534;9.196;2023-08-30T01:21:13;13.00;99.90
12845;DHT22;68700;48.534;9.196;2023-08-30T01:24:44;12.90;99.90
12845;DHT22;68700;48.534;9.196;2023-08-30T01:28:08;12.80;99.90
12845;DHT22;68700;48.534;9.196;2023-08-30T01:31:33;12.80;99.90
12845;DHT22;68700;48.534;9.196;2023-08-30T01:34:56;12.80;99.90
12845;DHT22;68700;48.534;9.196;2023-08-30T01:38:18;12.70;99.90
12845;DHT22;68700;48.534;9.196;2023-08-30T01:41:41;12.70;99.90
12845;DHT22;68700;48.534;9.196;2023-08-30T01:45:07;12.60;99.90
12845;DHT22;68700;48.534;9.196;2023-08-30T01:48:29;12.60;99.90
12845;DHT22;68700;48.534;9.196;2023-08-30T01:51:53;12.50;99.90
12845;DHT22;68700;48.534;9.196;2023-08-30T01:55:15;12.50;99.90
12845;DHT22;68700;48.534;9.196;2023-08-30T01:58:39;12.50;99.90
12845;DHT22;68700;48.534;9.196;2023-08-30T02:02:02;12.40;99.90
12845;DHT22;68700;48.534;9.196;2023-08-30T02:05:24;12.40;99.90
12845;DHT22;68700;48.534;9.196;2023-08-30T02:08:50;12.40;99.90
12845;DHT22;68700;48.534;9.196;2023-08-30T02:12:16;12.40;99.90
12845;DHT22;68700;48.534;9.196;2023-08-30T02:15:40;12.50;99.90
12845;DHT22;68700;48.534;9.196;2023-08-30T02:19:05;12.50;99.90
12845;DHT22;68700;48.534;9.196;2023-08-30T02:22:27;12.50;99.90
12845;DHT22;68700;48.534;9.196;2023-08-30T02:25:49;12.50;99.90
12845;DHT22;68700;48.534;9.196;2023-08-30T02:29:10;12.60;99.90
12845;DHT22;68700;48.534;9.196;2023-08-30T02:32:33;12.60;99.90
12845;DHT22;68700;48.534;9.196;2023-08-30T02:35:57;12.60;99.90
12845;DHT22;68700;48.534;9.196;2023-08-30T02:39:18;12.70;99.90
12845;DHT22;68700;48.534;9.196;2023-08-30T02:42:40;12.60;99.90
12845;DHT22;68700;48.534;9.196;2023-08-30T02:46:02;12.60;99.90
12845;DHT22;68700;48.534;9.196;2023-08-30T02:49:25;12.70;99.90
12845;DHT22;68700;48.534;9.196;2023-08-30T02:52:48;12.70;99.90
12845;DHT22;68700;48.534;9.196;2023-08-30T02:56:10;12.70;99.90
12845;DHT22;68700;48.534;9.196;2023-08-30T02:59:32;12.70;99.90
12845;DHT22;68700;48.534;9.196;2023-08-30T03:02:54;12.70;99.90
12845;DHT22;68700;48.534;9.196;2023-08-30T03:06:16;12.70;99.90
12845;DHT22;68700;48.534;9.196;2023-08-30T03:09:39;12.70;99.90
12845;DHT22;68700;48.534;9.196;2023-08-30T03:13:01;12.70;99.90
12845;DHT22;68700;48.534;9.196;2023-08-30T03:16:23;12.70;99.90
12845;DHT22;68700;48.534;9.196;2023-08-30T03:19:44;12.70;99.90
12845;DHT22;68700;48.534;9.196;2023-08-30T03:23:06;12.70;99.90
12845;DHT22;68700;48.534;9.196;2023-08-30T03:26:29;12.60;99.90
12845;DHT22;68700;48.534;9.196;2023-08-30T03:29:51;12.60;99.90
12845;DHT22;68700;48.534;9.196;2023-08-30T03:33:13;12.60;99.90
12845;DHT22;68700;48.534;9.196;2023-08-30T03:36:35;12.60;99.90
12845;DHT22;68700;48.534;9.196;2023-08-30T03:39:56;12.60;99.90
12845;DHT22;68700;48.534;9.196;2023-08-30T03:43:20;12.70;99.90
12845;DHT22;68700;48.534;9.196;2023-08-30T03:46:42;12.70;99.90
12845;DHT22;68700;48.534;9.196;2023-08-30T03:50:04;12.60;99.90
12845;DHT22;68700;48.534;9.196;2023-08-30T03:53:26;12.60;99.90
12845;DHT22;68700;48.534;9.196;2023-08-30T03:56:49;12.60;99.90
12845;DHT22;68700;48.534;9.196;2023-08-30T04:00:13;12.60;99.90
12845;DHT22;68700;48.534;9.196;2023-08-30T04:03:35;12.60;99.90
12845;DHT22;68700;48.534;9.196;2023-08-30T04:06:57;12.60;99.90
12845;DHT22;68700;48.534;9.196;2023-08-30T04:10:19;12.50;99.90
12845;DHT22;68700;48.534;9.196;2023-08-30T04:13:41;12.50;99.90
12845;DHT22;68700;48.534;9.196;2023-08-30T04:17:04;12.50;99.90
12845;DHT22;68700;48.534;9.196;2023-08-30T04:20:26;12.50;99.90
12845;DHT22;68700;48.534;9.196;2023-08-30T04:23:48;12.50;99.90
12845;DHT22;68700;48.534;9.196;2023-08-30T04:27:10;12.40;99.90
12845;DHT22;68700;48.534;9.196;2023-08-30T04:30:31;12.40;99.90
12845;DHT22;68700;48.534;9.196;2023-08-30T04:33:55;12.40;99.90
12845;DHT22;68700;48.534;9.196;2023-08-30T04:37:17;12.30;99.90
12845;DHT22;68700;48.534;9.196;2023-08-30T04:40:38;12.30;99.90
12845;DHT22;68700;48.534;9.196;2023-08-30T04:44:00;12.30;99.90
12845;DHT22;68700;48.534;9.196;2023-08-30T04:47:22;12.30;99.90
12845;DHT22;68700;48.534;9.196;2023-08-30T04:50:46;12.30;99.90
12845;DHT22;68700;48.534;9.196;2023-08-30T04:54:07;12.30;99.90
12845;DHT22;68700;48.534;9.196;2023-08-30T04:57:29;12.30;99.90
12845;DHT22;68700;48.534;9.196;2023-08-30T05:00:51;12.30;99.90
12845;DHT22;68700;48.534;9.196;2023-08-30T05:04:14;12.40;99.90
12845;DHT22;68700;48.534;9.196;2023-08-30T05:07:37;12.40;99.90
12845;DHT22;68700;48.534;9.196;2023-08-30T05:10:58;12.40;99.90
12845;DHT22;68700;48.534;9.196;2023-08-30T05:14:20;12.40;99.90
12845;DHT22;68700;48.534;9.196;2023-08-30T05:17:42;12.50;99.90
12845;DHT22;68700;48.534;9.196;2023-08-30T05:21:04;12.60;99.90
12845;DHT22;68700;48.534;9.196;2023-08-30T05:24:28;12.70;99.90
12845;DHT22;68700;48.534;9.196;2023-08-30T05:27:49;12.70;99.90
12845;DHT22;68700;48.534;9.196;2023-08-30T05:31:11;12.80;99.90
12845;DHT22;68700;48.534;9.196;2023-08-30T05:34:33;12.90;99.90
12845;DHT22;68700;48.534;9.196;2023-08-30T05:37:55;12.90;99.90
12845;DHT22;68700;48.534;9.196;2023-08-30T05:41:18;12.90;99.90
12845;DHT22;68700;48.534;9.196;2023-08-30T05:44:40;12.90;99.90
12845;DHT22;68700;48.534;9.196;2023-08-30T05:48:03;13.00;99.90
12845;DHT22;68700;48.534;9.196;2023-08-30T05:51:24;13.00;99.90
12845;DHT22;68700;48.534;9.196;2023-08-30T05:54:46;13.10;99.90
12845;DHT22;68700;48.534;9.196;2023-08-30T05:58:10;13.20;99.90
12845;DHT22;68700;48.534;9.196;2023-08-30T06:01:31;13.00;99.90
12845;DHT22;68700;48.534;9.196;2023-08-30T06:04:53;13.10;99.90
12845;DHT22;68700;48.534;9.196;2023-08-30T06:08:15;13.20;99.90
12845;DHT22;68700;48.534;9.196;2023-08-30T06:11:38;13.20;99.90
12845;DHT22;68700;48.534;9.196;2023-08-30T06:15:01;13.20;99.90
12845;DHT22;68700;48.534;9.196;2023-08-30T06:18:26;13.40;99.90
12845;DHT22;68700;48.534;9.196;2023-08-30T06:21:48;13.40;99.90
12845;DHT22;68700;48.534;9.196;2023-08-30T06:25:10;13.60;99.90
12845;DHT22;68700;48.534;9.196;2023-08-30T06:28:32;13.80;99.90
12845;DHT22;68700;48.534;9.196;2023-08-30T06:31:55;13.90;99.90
12845;DHT22;68700;48.534;9.196;2023-08-30T06:35:17;13.90;99.90
12845;DHT22;68700;48.534;9.196;2023-08-30T06:38:39;14.10;99.90
12845;DHT22;68700;48.534;9.196;2023-08-30T06:42:00;14.10;99.90
12845;DHT22;68700;48.534;9.196;2023-08-30T06:45:22;14.10;99.90
12845;DHT22;68700;48.534;9.196;2023-08-30T06:48:45;14.20;99.90
12845;DHT22;68700;48.534;9.196;2023-08-30T06:52:07;14.20;99.90
12845;DHT22;68700;48.534;9.196;2023-08-30T06:55:29;14.30;99.90
12845;DHT22;68700;48.534;9.196;2023-08-30T06:58:52;14.40;99.90
12845;DHT22;68700;48.534;9.196;2023-08-30T07:02:14;14.70;99.90
12845;DHT22;68700;48.534;9.196;2023-08-30T07:05:38;14.70;99.90
12845;DHT22;68700;48.534;9.196;2023-08-30T07:09:01;14.40;99.90
12845;DHT22;68700;48.534;9.196;2023-08-30T07:12:23;14.80;99.90
12845;DHT22;68700;48.534;9.196;2023-08-30T07:15:46;15.20;99.90
12845;DHT22;68700;48.534;9.196;2023-08-30T07:19:08;15.30;99.90
12845;DHT22;68700;48.534;9.196;2023-08-30T07:22:31;15.70;99.90
12845;DHT22;68700;48.534;9.196;2023-08-30T07:25:53;16.10;44.50
12845;DHT22;68700;48.534;9.196;2023-08-30T07:29:15;16.40;1.00
12845;DHT22;68700;48.534;9.196;2023-08-30T07:32:37;16.30;1.00
12845;DHT22;68700;48.534;9.196;2023-08-30T07:35:59;16.10;1.00
12845;DHT22;68700;48.534;9.196;2023-08-30T07:39:22;15.90;1.00
12845;DHT22;68700;48.534;9.196;2023-08-30T07:42:44;16.10;1.00
12845;DHT22;68700;48.534;9.196;2023-08-30T07:46:06;15.80;14.80
12845;DHT22;68700;48.534;9.196;2023-08-30T07:49:27;16.20;12.80
12845;DHT22;68700;48.534;9.196;2023-08-30T07:52:49;16.60;6.20
12845;DHT22;68700;48.534;9.196;2023-08-30T07:56:12;16.60;1.00
12845;DHT22;68700;48.534;9.196;2023-08-30T07:59:35;17.10;1.00
12845;DHT22;68700;48.534;9.196;2023-08-30T08:02:57;17.30;1.00
12845;DHT22;68700;48.534;9.196;2023-08-30T08:06:19;17.90;1.00
12845;DHT22;68700;48.534;9.196;2023-08-30T08:09:41;18.10;1.00
12845;DHT22;68700;48.534;9.196;2023-08-30T08:13:04;18.40;1.00
12845;DHT22;68700;48.534;9.196;2023-08-30T08:16:26;18.20;1.00
12845;DHT22;68700;48.534;9.196;2023-08-30T08:19:47;17.90;1.00
12845;DHT22;68700;48.534;9.196;2023-08-30T08:23:09;17.30;1.00
12845;DHT22;68700;48.534;9.196;2023-08-30T08:26:31;18.10;1.00
12845;DHT22;68700;48.534;9.196;2023-08-30T08:29:54;18.10;1.00
12845;DHT22;68700;48.534;9.196;2023-08-30T08:33:16;18.20;1.00
12845;DHT22;68700;48.534;9.196;2023-08-30T08:36:39;18.40;1.00
12845;DHT22;68700;48.534;9.196;2023-08-30T08:40:00;18.20;1.00
12845;DHT22;68700;48.534;9.196;2023-08-30T08:43:29;18.50;1.00
12845;DHT22;68700;48.534;9.196;2023-08-30T08:46:54;18.90;1.00
12845;DHT22;68700;48.534;9.196;2023-08-30T08:50:16;18.50;1.00
12845;DHT22;68700;48.534;9.196;2023-08-30T08:53:39;18.30;1.00
12845;DHT22;68700;48.534;9.196;2023-08-30T08:57:01;18.50;1.00
12845;DHT22;68700;48.534;9.196;2023-08-30T09:00:24;19.00;1.00
12845;DHT22;68700;48.534;9.196;2023-08-30T09:03:47;19.60;1.00
12845;DHT22;68700;48.534;9.196;2023-08-30T09:07:09;20.10;1.00
12845;DHT22;68700;48.534;9.196;2023-08-30T09:10:31;20.20;1.00
12845;DHT22;68700;48.534;9.196;2023-08-30T09:13:53;20.20;1.00
12845;DHT22;68700;48.534;9.196;2023-08-30T09:17:16;20.50;1.00
12845;DHT22;68700;48.534;9.196;2023-08-30T09:20:39;20.50;1.00
12845;DHT22;68700;48.534;9.196;2023-08-30T09:24:02;21.00;1.00
12845;DHT22;68700;48.534;9.196;2023-08-30T09:27:31;20.20;1.00
12845;DHT22;68700;48.534;9.196;2023-08-30T09:30:54;21.30;1.00
12845;DHT22;68700;48.534;9.196;2023-08-30T09:34:16;20.90;1.00
12845;DHT22;68700;48.534;9.196;2023-08-30T09:37:39;21.00;1.00
12845;DHT22;68700;48.534;9.196;2023-08-30T09:41:04;20.60;1.00
12845;DHT22;68700;48.534;9.196;2023-08-30T09:44:29;21.90;1.00
12845;DHT22;68700;48.534;9.196;2023-08-30T09:47:51;21.00;1.00
12845;DHT22;68700;48.534;9.196;2023-08-30T09:51:14;20.50;1.00
12845;DHT22;68700;48.534;9.196;2023-08-30T09:54:38;21.10;1.00
12845;DHT22;68700;48.534;9.196;2023-08-30T09:58:02;21.90;1.00
12845;DHT22;68700;48.534;9.196;2023-08-30T10:01:25;22.40;1.00
12845;DHT22;68700;48.534;9.196;2023-08-30T10:04:48;22.10;1.00
12845;DHT22;68700;48.534;9.196;2023-08-30T10:08:11;21.10;1.00
12845;DHT22;68700;48.534;9.196;2023-08-30T10:11:36;21.50;1.00
12845;DHT22;68700;48.534;9.196;2023-08-30T10:14:58;22.00;1.00
12845;DHT22;68700;48.534;9.196;2023-08-30T10:18:22;22.30;1.00
12845;DHT22;68700;48.534;9.196;2023-08-30T10:21:48;21.40;1.00
12845;DHT22;68700;48.534;9.196;2023-08-30T10:25:16;21.70;1.00
12845;DHT22;68700;48.534;9.196;2023-08-30T10:28:41;21.50;1.00
12845;DHT22;68700;48.534;9.196;2023-08-30T10:32:04;21.90;1.00
12845;DHT22;68700;48.534;9.196;2023-08-30T10:35:26;21.10;1.00
12845;DHT22;68700;48.534;9.196;2023-08-30T10:38:49;21.20;1.00
12845;DHT22;68700;48.534;9.196;2023-08-30T10:42:12;21.80;1.00
12845;DHT22;68700;48.534;9.196;2023-08-30T10:45:35;22.00;1.00
12845;DHT22;68700;48.534;9.196;2023-08-30T10:49:08;22.30;1.00
12845;DHT22;68700;48.534;9.196;2023-08-30T10:52:31;22.90;1.00
12845;DHT22;68700;48.534;9.196;2023-08-30T10:56:03;22.50;1.00
12845;DHT22;68700;48.534;9.196;2023-08-30T10:59:27;22.60;1.00
12845;DHT22;68700;48.534;9.196;2023-08-30T11:02:52;22.50;1.00
12845;DHT22;68700;48.534;9.196;2023-08-30T11:06:14;23.40;1.00
12845;DHT22;68700;48.534;9.196;2023-08-30T11:09:40;23.80;1.00
12845;DHT22;68700;48.534;9.196;2023-08-30T11:13:02;24.10;1.00
12845;DHT22;68700;48.534;9.196;2023-08-30T11:16:23;23.60;1.00
12845;DHT22;68700;48.534;9.196;2023-08-30T11:19:56;23.80;1.00
12845;DHT22;68700;48.534;9.196;2023-08-30T11:23:19;23.30;1.00
12845;DHT22;68700;48.534;9.196;2023-08-30T11:27:12;23.00;1.00
12845;DHT22;68700;48.534;9.196;2023-08-30T11:30:40;23.60;1.00
12845;DHT22;68700;48.534;9.196;2023-08-30T11:34:02;23.00;1.00
12845;DHT22;68700;48.534;9.196;2023-08-30T11:37:26;24.40;1.00
12845;DHT22;68700;48.534;9.196;2023-08-30T11:40:51;25.70;1.00
12845;DHT22;68700;48.534;9.196;2023-08-30T11:44:13;25.70;1.00
12845;DHT22;68700;48.534;9.196;2023-08-30T11:47:37;25.70;1.00
12845;DHT22;68700;48.534;9.196;2023-08-30T11:50:59;26.70;1.00
12845;DHT22;68700;48.534;9.196;2023-08-30T11:54:23;26.10;1.00
12845;DHT22;68700;48.534;9.196;2023-08-30T11:57:48;25.30;1.00
12845;DHT22;68700;48.534;9.196;2023-08-30T12:01:23;25.90;1.00
12845;DHT22;68700;48.534;9.196;2023-08-30T12:04:46;25.70;1.00
12845;DHT22;68700;48.534;9.196;2023-08-30T12:08:18;26.20;1.00
12845;DHT22;68700;48.534;9.196;2023-08-30T12:11:41;26.50;1.00
12845;DHT22;68700;48.534;9.196;2023-08-30T12:15:08;24.60;1.00
12845;DHT22;68700;48.534;9.196;2023-08-30T12:18:32;24.50;1.00
12845;DHT22;68700;48.534;9.196;2023-08-30T12:21:54;24.10;1.00
12845;DHT22;68700;48.534;9.196;2023-08-30T12:25:17;23.60;1.00
12845;DHT22;68700;48.534;9.196;2023-08-30T12:28:41;24.10;1.00
12845;DHT22;68700;48.534;9.196;2023-08-30T12:32:05;25.20;1.00
12845;DHT22;68700;48.534;9.196;2023-08-30T12:35:27;25.10;1.00
12845;DHT22;68700;48.534;9.196;2023-08-30T12:38:49;24.50;1.00
12845;DHT22;68700;48.534;9.196;2023-08-30T12:42:13;24.30;1.00
12845;DHT22;68700;48.534;9.196;2023-08-30T12:45:36;25.40;1.00
12845;DHT22;68700;48.534;9.196;2023-08-30T12:48:58;23.90;1.00
12845;DHT22;68700;48.534;9.196;2023-08-30T12:52:20;22.50;1.00
12845;DHT22;68700;48.534;9.196;2023-08-30T12:55:42;22.50;1.00
12845;DHT22;68700;48.534;9.196;2023-08-30T12:59:04;22.50;1.00
12845;DHT22;68700;48.534;9.196;2023-08-30T13:02:28;22.80;1.00
12845;DHT22;68700;48.534;9.196;2023-08-30T13:05:49;23.50;1.00
12845;DHT22;68700;48.534;9.196;2023-08-30T13:09:11;24.60;1.00
12845;DHT22;68700;48.534;9.196;2023-08-30T13:12:33;25.10;1.00
12845;DHT22;68700;48.534;9.196;2023-08-30T13:15:55;25.80;1.00
12845;DHT22;68700;48.534;9.196;2023-08-30T13:19:18;25.00;1.00
12845;DHT22;68700;48.534;9.196;2023-08-30T13:22:40;24.60;1.00
12845;DHT22;68700;48.534;9.196;2023-08-30T13:26:02;24.40;1.00
12845;DHT22;68700;48.534;9.196;2023-08-30T13:29:24;24.10;1.00
12845;DHT22;68700;48.534;9.196;2023-08-30T13:32:46;24.20;1.00
12845;DHT22;68700;48.534;9.196;2023-08-30T13:36:09;24.10;1.00
12845;DHT22;68700;48.534;9.196;2023-08-30T13:39:31;22.60;1.00
12845;DHT22;68700;48.534;9.196;2023-08-30T13:42:53;23.50;1.00
12845;DHT22;68700;48.534;9.196;2023-08-30T13:46:15;24.10;1.00
12845;DHT22;68700;48.534;9.196;2023-08-30T13:49:37;24.80;1.00
12845;DHT22;68700;48.534;9.196;2023-08-30T13:53:00;25.80;1.00
12845;DHT22;68700;48.534;9.196;2023-08-30T13:56:23;26.40;1.00
12845;DHT22;68700;48.534;9.196;2023-08-30T13:59:44;25.10;1.00
12845;DHT22;68700;48.534;9.196;2023-08-30T14:03:06;25.80;1.00
12845;DHT22;68700;48.534;9.196;2023-08-30T14:06:30;25.40;1.00
12845;DHT22;68700;48.534;9.196;2023-08-30T14:09:54;24.70;1.00
12845;DHT22;68700;48.534;9.196;2023-08-30T14:13:16;24.20;1.00
12845;DHT22;68700;48.534;9.196;2023-08-30T14:16:38;24.10;1.00
12845;DHT22;68700;48.534;9.196;2023-08-30T14:19:59;23.40;1.00
12845;DHT22;68700;48.534;9.196;2023-08-30T14:23:21;23.60;1.00
12845;DHT22;68700;48.534;9.196;2023-08-30T14:26:45;23.80;1.00
12845;DHT22;68700;48.534;9.196;2023-08-30T14:30:08;23.50;1.00
12845;DHT22;68700;48.534;9.196;2023-08-30T14:33:30;23.50;1.00
12845;DHT22;68700;48.534;9.196;2023-08-30T14:36:51;23.20;1.00
12845;DHT22;68700;48.534;9.196;2023-08-30T14:40:14;22.20;1.00
12845;DHT22;68700;48.534;9.196;2023-08-30T14:43:37;22.40;1.00
12845;DHT22;68700;48.534;9.196;2023-08-30T14:46:59;22.40;1.00
12845;DHT22;68700;48.534;9.196;2023-08-30T14:50:20;22.30;1.00
12845;DHT22;68700;48.534;9.196;2023-08-30T14:53:42;22.30;1.00
12845;DHT22;68700;48.534;9.196;2023-08-30T14:57:04;22.10;1.00
12845;DHT22;68700;48.534;9.196;2023-08-30T15:00:28;21.80;1.00
12845;DHT22;68700;48.534;9.196;2023-08-30T15:03:49;21.50;1.00
12845;DHT22;68700;48.534;9.196;2023-08-30T15:07:11;21.10;1.00
12845;DHT22;68700;48.534;9.196;2023-08-30T15:10:33;20.90;1.00
12845;DHT22;68700;48.534;9.196;2023-08-30T15:13:55;20.30;1.00
12845;DHT22;68700;48.534;9.196;2023-08-30T15:17:19;20.50;1.00
12845;DHT22;68700;48.534;9.196;2023-08-30T15:20:41;20.30;1.00
12845;DHT22;68700;48.534;9.196;2023-08-30T15:24:03;20.20;1.00
12845;DHT22;68700;48.534;9.196;2023-08-30T15:27:25;20.00;1.00
12845;DHT22;68700;48.534;9.196;2023-08-30T15:30:48;19.70;1.00
12845;DHT22;68700;48.534;9.196;2023-08-30T15:34:12;19.60;1.00
12845;DHT22;68700;48.534;9.196;2023-08-30T15:37:34;19.60;1.00
12845;DHT22;68700;48.534;9.196;2023-08-30T15:40:56;19.60;1.00
12845;DHT22;68700;48.534;9.196;2023-08-30T15:44:18;19.80;1.00
12845;DHT22;68700;48.534;9.196;2023-08-30T15:47:40;19.90;1.00
12845;DHT22;68700;48.534;9.196;2023-08-30T15:51:03;19.90;1.00
12845;DHT22;68700;48.534;9.196;2023-08-30T15:54:25;20.10;1.00
12845;DHT22;68700;48.534;9.196;2023-08-30T15:57:47;20.30;1.00
12845;DHT22;68700;48.534;9.196;2023-08-30T16:01:09;20.50;1.00
12845;DHT22;68700;48.534;9.196;2023-08-30T16:04:31;20.50;1.00
12845;DHT22;68700;48.534;9.196;2023-08-30T16:07:54;20.50;1.00
12845;DHT22;68700;48.534;9.196;2023-08-30T16:11:16;20.60;1.00
12845;DHT22;68700;48.534;9.196;2023-08-30T16:14:38;20.60;1.00
12845;DHT22;68700;48.534;9.196;2023-08-30T16:17:59;20.70;1.00
12845;DHT22;68700;48.534;9.196;2023-08-30T16:21:22;21.00;1.00
12845;DHT22;68700;48.534;9.196;2023-08-30T16:24:45;21.20;1.00
12845;DHT22;68700;48.534;9.196;2023-08-30T16:28:07;21.40;1.00
12845;DHT22;68700;48.534;9.196;2023-08-30T16:31:29;21.30;1.00
12845;DHT22;68700;48.534;9.196;2023-08-30T16:34:51;21.10;1.00
12845;DHT22;68700;48.534;9.196;2023-08-30T16:38:13;21.10;1.00
12845;DHT22;68700;48.534;9.196;2023-08-30T16:41:36;20.80;1.00
12845;DHT22;68700;48.534;9.196;2023-08-30T16:44:58;20.50;1.00
12845;DHT22;68700;48.534;9.196;2023-08-30T16:48:20;20.40;1.00
12845;DHT22;68700;48.534;9.196;2023-08-30T16:51:42;20.20;1.00
12845;DHT22;68700;48.534;9.196;2023-08-30T16:55:04;20.20;1.00
12845;DHT22;68700;48.534;9.196;2023-08-30T16:58:27;20.10;1.00
12845;DHT22;68700;48.534;9.196;2023-08-30T17:01:49;20.10;1.00
12845;DHT22;68700;48.534;9.196;2023-08-30T17:05:11;19.90;1.00
12845;DHT22;68700;48.534;9.196;2023-08-30T17:08:33;19.60;1.00
12845;DHT22;68700;48.534;9.196;2023-08-30T17:11:55;19.20;1.00
12845;DHT22;68700;48.534;9.196;2023-08-30T17:15:18;18.90;1.00
12845;DHT22;68700;48.534;9.196;2023-08-30T17:18:40;18.70;1.00
12845;DHT22;68700;48.534;9.196;2023-08-30T17:22:03;18.50;1.00
12845;DHT22;68700;48.534;9.196;2023-08-30T17:25:24;18.40;1.00
12845;DHT22;68700;48.534;9.196;2023-08-30T17:28:46;18.40;1.00
12845;DHT22;68700;48.534;9.196;2023-08-30T17:32:09;18.40;1.00
12845;DHT22;68700;48.534;9.196;2023-08-30T17:35:31;18.30;1.00
12845;DHT22;68700;48.534;9.196;2023-08-30T17:38:54;18.20;1.00
12845;DHT22;68700;48.534;9.196;2023-08-30T17:42:16;18.00;1.00
12845;DHT22;68700;48.534;9.196;2023-08-30T17:45:38;17.80;1.00
12845;DHT22;68700;48.534;9.196;2023-08-30T17:49:02;17.70;1.00
12845;DHT22;68700;48.534;9.196;2023-08-30T17:52:24;17.60;1.00
12845;DHT22;68700;48.534;9.196;2023-08-30T17:55:53;17.60;1.00
12845;DHT22;68700;48.534;9.196;2023-08-30T17:59:15;17.60;1.00
12845;DHT22;68700;48.534;9.196;2023-08-30T18:02:37;17.40;1.00
12845;DHT22;68700;48.534;9.196;2023-08-30T18:06:01;17.20;1.00
12845;DHT22;68700;48.534;9.196;2023-08-30T18:09:24;17.10;1.00
12845;DHT22;68700;48.534;9.196;2023-08-30T18:12:46;17.00;1.00
12845;DHT22;68700;48.534;9.196;2023-08-30T18:16:09;16.90;1.00
12845;DHT22;68700;48.534;9.196;2023-08-30T18:19:32;16.80;1.00
12845;DHT22;68700;48.534;9.196;2023-08-30T18:22:55;16.70;1.00
12845;DHT22;68700;48.534;9.196;2023-08-30T18:26:17;16.70;1.00
12845;DHT22;68700;48.534;9.196;2023-08-30T18:29:39;16.60;1.00
12845;DHT22;68700;48.534;9.196;2023-08-30T18:33:03;16.40;1.00
12845;DHT22;68700;48.534;9.196;2023-08-30T18:36:25;16.30;1.00
12845;DHT22;68700;48.534;9.196;2023-08-30T18:39:48;16.30;1.00
12845;DHT22;68700;48.534;9.196;2023-08-30T18:43:10;16.20;1.00
12845;DHT22;68700;48.534;9.196;2023-08-30T18:46:32;16.20;1.00
12845;DHT22;68700;48.534;9.196;2023-08-30T18:49:54;16.10;1.00
12845;DHT22;68700;48.534;9.196;2023-08-30T18:53:16;16.10;1.00
12845;DHT22;68700;48.534;9.196;2023-08-30T18:56:39;16.00;1.00
12845;DHT22;68700;48.534;9.196;2023-08-30T19:00:01;15.90;1.00
12845;DHT22;68700;48.534;9.196;2023-08-30T19:03:26;15.90;1.00
12845;DHT22;68700;48.534;9.196;2023-08-30T19:06:48;15.80;1.00
12845;DHT22;68700;48.534;9.196;2023-08-30T19:10:10;15.70;1.00
12845;DHT22;68700;48.534;9.196;2023-08-30T19:13:34;15.70;1.00
12845;DHT22;68700;48.534;9.196;2023-08-30T19:16:56;15.60;1.00
12845;DHT22;68700;48.534;9.196;2023-08-30T19:20:18;15.60;1.00
12845;DHT22;68700;48.534;9.196;2023-08-30T19:23:39;15.60;1.00
12845;DHT22;68700;48.534;9.196;2023-08-30T19:27:04;15.60;1.00
12845;DHT22;68700;48.534;9.196;2023-08-30T19:30:27;15.50;1.00
12845;DHT22;68700;48.534;9.196;2023-08-30T19:33:50;15.50;1.00
12845;DHT22;68700;48.534;9.196;2023-08-30T19:37:12;15.50;1.00
12845;DHT22;68700;48.534;9.196;2023-08-30T19:40:33;15.50;1.00
12845;DHT22;68700;48.534;9.196;2023-08-30T19:43:55;15.50;1.00
12845;DHT22;68700;48.534;9.196;2023-08-30T19:47:19;15.60;1.00
12845;DHT22;68700;48.534;9.196;2023-08-30T19:50:41;15.70;1.00
12845;DHT22;68700;48.534;9.196;2023-08-30T19:54:11;15.70;1.00
12845;DHT22;68700;48.534;9.196;2023-08-30T19:57:33;15.70;1.00
12845;DHT22;68700;48.534;9.196;2023-08-30T20:01:03;15.60;21.70
12845;DHT22;68700;48.534;9.196;2023-08-30T20:04:27;15.50;30.70
12845;DHT22;68700;48.534;9.196;2023-08-30T20:07:48;15.20;99.90
12845;DHT22;68700;48.534;9.196;2023-08-30T20:11:10;15.10;99.90
12845;DHT22;68700;48.534;9.196;2023-08-30T20:14:32;15.00;99.90
12845;DHT22;68700;48.534;9.196;2023-08-30T20:17:54;15.00;99.90
12845;DHT22;68700;48.534;9.196;2023-08-30T20:21:18;15.00;99.90
12845;DHT22;68700;48.534;9.196;2023-08-30T20:24:39;15.00;99.90
12845;DHT22;68700;48.534;9.196;2023-08-30T20:28:01;15.00;99.90
12845;DHT22;68700;48.534;9.196;2023-08-30T20:31:23;14.90;99.90
12845;DHT22;68700;48.534;9.196;2023-08-30T20:34:45;14.90;99.90
12845;DHT22;68700;48.534;9.196;2023-08-30T20:38:08;14.90;99.90
12845;DHT22;68700;48.534;9.196;2023-08-30T20:41:31;14.90;99.90
12845;DHT22;68700;48.534;9.196;2023-08-30T20:44:52;14.90;99.90
12845;DHT22;68700;48.534;9.196;2023-08-30T20:48:14;14.90;99.90
12845;DHT22;68700;48.534;9.196;2023-08-30T20:51:36;14.90;99.90
12845;DHT22;68700;48.534;9.196;2023-08-30T20:54:59;14.90;99.90
12845;DHT22;68700;48.534;9.196;2023-08-30T20:58:25;14.90;99.90
12845;DHT22;68700;48.534;9.196;2023-08-30T21:01:46;14.90;99.90
12845;DHT22;68700;48.534;9.196;2023-08-30T21:05:08;14.80;99.90
12845;DHT22;68700;48.534;9.196;2023-08-30T21:08:33;14.60;99.90
12845;DHT22;68700;48.534;9.196;2023-08-30T21:11:57;14.60;99.90
12845;DHT22;68700;48.534;9.196;2023-08-30T21:15:19;14.60;99.90
12845;DHT22;68700;48.534;9.196;2023-08-30T21:18:41;14.60;99.90
12845;DHT22;68700;48.534;9.196;2023-08-30T21:22:03;14.60;99.90
12845;DHT22;68700;48.534;9.196;2023-08-30T21:25:34;14.60;99.90
12845;DHT22;68700;48.534;9.196;2023-08-30T21:28:57;14.60;99.90
12845;DHT22;68700;48.534;9.196;2023-08-30T21:32:19;14.60;99.90
12845;DHT22;68700;48.534;9.196;2023-08-30T21:35:42;14.50;99.90